createdAt,value
2017-11-29T00:02:07.212Z,5.40
2017-11-29T00:04:34.919Z,5.30
2017-11-29T00:07:02.615Z,5.30
2017-11-29T00:09:30.295Z,5.30
2017-11-29T00:11:57.923Z,5.10
2017-11-29T00:14:25.673Z,5.50
2017-11-29T00:16:53.354Z,5.30
2017-11-29T00:19:21.031Z,5.10
2017-11-29T00:21:51.115Z,5.10
2017-11-29T00:24:18.874Z,5.40
2017-11-29T00:26:46.869Z,5.10
2017-11-29T00:29:14.505Z,5.10
2017-11-29T00:31:42.132Z,5.20
2017-11-29T00:34:09.805Z,5.30
2017-11-29T00:36:37.488Z,5.10
2017-11-29T00:39:05.368Z,5.20
2017-11-29T00:41:33.042Z,4.80
2017-11-29T00:44:00.730Z,5.00
2017-11-29T00:46:28.348Z,5.10
2017-11-29T00:48:56.041Z,5.30
2017-11-29T00:51:23.693Z,5.00
2017-11-29T00:53:51.375Z,4.80
2017-11-29T00:56:19.051Z,5.10
2017-11-29T00:58:46.703Z,5.10
2017-11-29T01:01:14.354Z,5.20
2017-11-29T01:03:42.780Z,5.00
2017-11-29T01:06:10.395Z,5.10
2017-11-29T01:08:38.198Z,5.10
2017-11-29T01:11:05.976Z,5.10
2017-11-29T01:13:33.642Z,5.20
2017-11-29T01:16:01.294Z,4.70
2017-11-29T01:18:28.958Z,5.20
2017-11-29T01:20:57.138Z,4.80
2017-11-29T01:23:24.799Z,5.00
2017-11-29T01:25:52.411Z,4.80
2017-11-29T01:28:20.091Z,5.00
2017-11-29T01:30:48.300Z,5.00
2017-11-29T01:33:16.075Z,4.80
2017-11-29T01:35:43.760Z,5.00
2017-11-29T01:38:11.431Z,4.80
2017-11-29T01:40:39.139Z,5.00
2017-11-29T01:43:06.807Z,4.80
2017-11-29T01:45:34.463Z,5.10
2017-11-29T01:48:02.431Z,5.10
2017-11-29T01:50:30.082Z,5.20
2017-11-29T01:52:57.736Z,5.30
2017-11-29T01:55:25.396Z,5.00
2017-11-29T01:57:53.052Z,4.80
2017-11-29T02:00:20.924Z,5.00
2017-11-29T02:02:48.687Z,4.80
2017-11-29T02:05:16.346Z,4.90
2017-11-29T02:07:44.213Z,4.70
2017-11-29T02:10:11.834Z,5.20
2017-11-29T02:12:39.505Z,4.70
2017-11-29T02:15:07.203Z,5.20
2017-11-29T02:17:34.821Z,4.70
2017-11-29T02:20:02.528Z,5.00
2017-11-29T02:22:30.959Z,4.80
2017-11-29T02:24:58.698Z,4.80
2017-11-29T02:27:26.405Z,4.80
2017-11-29T02:29:54.092Z,4.80
2017-11-29T02:32:21.790Z,4.80
2017-11-29T02:34:49.489Z,4.80
2017-11-29T02:37:17.198Z,4.80
2017-11-29T02:39:56.798Z,4.80
2017-11-29T02:42:36.289Z,4.80
2017-11-29T02:45:04.009Z,4.80
2017-11-29T02:47:31.719Z,4.80
2017-11-29T02:49:59.666Z,4.80
2017-11-29T02:52:28.103Z,4.80
2017-11-29T02:54:55.819Z,4.90
2017-11-29T02:57:23.467Z,4.70
2017-11-29T02:59:51.940Z,4.80
2017-11-29T03:02:19.595Z,4.80
2017-11-29T03:04:47.947Z,4.90
2017-11-29T03:07:15.706Z,4.70
2017-11-29T03:09:43.334Z,5.00
2017-11-29T03:12:10.947Z,4.70
2017-11-29T03:14:38.780Z,5.00
2017-11-29T03:17:06.427Z,4.70
2017-11-29T03:19:34.214Z,5.20
2017-11-29T03:22:02.046Z,4.70
2017-11-29T03:24:29.654Z,5.20
2017-11-29T03:26:57.275Z,4.70
2017-11-29T03:29:24.930Z,5.20
2017-11-29T03:31:52.551Z,4.70
2017-11-29T03:34:20.227Z,5.20
2017-11-29T03:36:47.846Z,4.80
2017-11-29T03:39:15.497Z,5.00
2017-11-29T03:41:43.114Z,4.80
2017-11-29T03:44:11.010Z,4.80
2017-11-29T03:46:38.643Z,4.90
2017-11-29T03:49:06.331Z,5.30
2017-11-29T03:51:34.006Z,4.80
2017-11-29T03:54:01.623Z,4.80
2017-11-29T03:56:29.313Z,4.80
2017-11-29T03:58:57.222Z,4.90
2017-11-29T04:01:25.607Z,5.10
2017-11-29T04:03:54.256Z,4.70
2017-11-29T04:06:21.871Z,4.80
2017-11-29T04:08:49.570Z,5.10
2017-11-29T04:11:17.297Z,5.20
2017-11-29T04:13:44.966Z,4.80
2017-11-29T04:16:12.598Z,5.10
2017-11-29T04:18:40.527Z,5.20
2017-11-29T04:21:08.228Z,4.70
2017-11-29T04:23:35.935Z,5.20
2017-11-29T04:26:03.593Z,5.00
2017-11-29T04:28:31.286Z,5.00
2017-11-29T04:30:58.903Z,5.00
2017-11-29T04:33:26.600Z,5.00
2017-11-29T04:35:54.237Z,5.00
2017-11-29T04:38:22.044Z,5.00
2017-11-29T04:40:50.470Z,5.10
2017-11-29T04:43:18.119Z,4.90
2017-11-29T04:45:46.002Z,4.70
2017-11-29T04:48:13.680Z,5.20
2017-11-29T04:50:41.343Z,4.70
2017-11-29T04:53:09.032Z,5.00
2017-11-29T04:55:36.966Z,5.20
2017-11-29T04:58:04.818Z,5.30
2017-11-29T05:00:32.519Z,5.00
2017-11-29T05:03:00.976Z,5.00
2017-11-29T05:05:28.654Z,5.20
2017-11-29T05:07:56.367Z,5.00
2017-11-29T05:10:24.050Z,5.00
2017-11-29T05:12:51.720Z,5.10
2017-11-29T05:15:19.426Z,5.10
2017-11-29T05:17:47.236Z,5.10
2017-11-29T05:20:14.894Z,5.20
2017-11-29T05:22:42.602Z,4.70
2017-11-29T05:25:10.279Z,5.30
2017-11-29T05:27:38.191Z,5.10
2017-11-29T05:30:05.939Z,5.20
2017-11-29T05:32:33.809Z,5.00
2017-11-29T05:35:02.306Z,5.00
2017-11-29T05:37:32.094Z,5.10
2017-11-29T05:40:00.998Z,5.10
2017-11-29T05:42:35.565Z,4.90
2017-11-29T05:45:04.248Z,5.30
2017-11-29T05:47:32.761Z,5.10
2017-11-29T05:50:00.682Z,5.20
2017-11-29T05:52:29.179Z,5.10
2017-11-29T05:54:56.895Z,4.90
2017-11-29T05:57:24.865Z,5.00
2017-11-29T05:59:52.615Z,5.00
2017-11-29T06:02:20.473Z,5.10
2017-11-29T06:04:48.357Z,5.20
2017-11-29T06:07:16.431Z,5.40
2017-11-29T06:09:44.113Z,5.00
2017-11-29T06:12:11.844Z,5.00
2017-11-29T06:14:39.595Z,4.80
2017-11-29T06:17:07.680Z,4.80
2017-11-29T06:19:35.738Z,4.80
2017-11-29T06:22:03.426Z,4.80
2017-11-29T06:24:31.106Z,4.80
2017-11-29T06:26:58.938Z,4.80
2017-11-29T06:29:26.575Z,4.80
2017-11-29T06:31:54.465Z,4.80
2017-11-29T06:34:22.107Z,4.80
2017-11-29T06:36:50.077Z,4.80
2017-11-29T06:39:17.837Z,4.80
2017-11-29T06:41:45.447Z,4.80
2017-11-29T06:44:13.125Z,4.80
2017-11-29T06:46:40.754Z,4.70
2017-11-29T06:49:08.583Z,5.00
2017-11-29T06:51:36.263Z,4.90
2017-11-29T06:54:04.109Z,4.60
2017-11-29T06:56:31.798Z,4.70
2017-11-29T06:59:00.400Z,4.90
2017-11-29T07:01:29.616Z,5.00
2017-11-29T07:03:57.429Z,5.10
2017-11-29T07:06:25.503Z,4.90
2017-11-29T07:08:53.567Z,4.60
2017-11-29T07:11:21.197Z,4.80
2017-11-29T07:13:49.195Z,4.70
2017-11-29T07:16:16.819Z,5.00
2017-11-29T07:18:44.645Z,4.80
2017-11-29T07:21:12.334Z,4.70
2017-11-29T07:23:39.965Z,4.90
2017-11-29T07:26:08.530Z,4.90
2017-11-29T07:28:36.189Z,4.90
2017-11-29T07:31:03.851Z,4.70
2017-11-29T07:33:32.300Z,4.90
2017-11-29T07:36:00.196Z,4.80
2017-11-29T07:38:27.862Z,4.70
2017-11-29T07:40:55.488Z,5.00
2017-11-29T07:43:23.147Z,4.70
2017-11-29T07:45:50.935Z,4.90
2017-11-29T07:48:18.694Z,4.70
2017-11-29T07:50:46.322Z,5.00
2017-11-29T07:53:13.989Z,4.70
2017-11-29T07:55:42.662Z,5.00
2017-11-29T07:58:10.447Z,4.70
2017-11-29T08:00:38.214Z,4.90
2017-11-29T08:03:05.888Z,4.70
2017-11-29T08:05:33.511Z,5.00
2017-11-29T08:08:01.419Z,4.70
2017-11-29T08:10:29.104Z,5.00
2017-11-29T08:12:57.440Z,4.80
2017-11-29T08:15:25.099Z,4.80
2017-11-29T08:17:52.742Z,4.70
2017-11-29T08:20:20.621Z,5.00
2017-11-29T08:22:48.234Z,4.80
2017-11-29T08:25:15.875Z,4.80
2017-11-29T08:27:43.582Z,4.80
2017-11-29T08:30:11.362Z,4.80
2017-11-29T08:32:39.198Z,4.90
2017-11-29T08:35:06.890Z,5.00
2017-11-29T08:37:34.652Z,4.80
2017-11-29T08:40:02.370Z,4.80
2017-11-29T08:42:30.094Z,5.00
2017-11-29T08:44:57.818Z,5.00
2017-11-29T08:47:25.497Z,5.00
2017-11-29T08:49:53.226Z,5.00
2017-11-29T08:52:20.941Z,5.00
2017-11-29T08:54:49.586Z,5.10
2017-11-29T08:57:17.591Z,5.20
2017-11-29T08:59:45.326Z,5.00
2017-11-29T09:02:12.971Z,5.00
2017-11-29T09:04:40.635Z,5.00
2017-11-29T09:07:08.336Z,5.00
2017-11-29T09:09:36.030Z,5.00
2017-11-29T09:12:03.692Z,5.00
2017-11-29T09:14:31.620Z,5.00
2017-11-29T09:16:59.289Z,4.80
2017-11-29T09:19:28.497Z,5.00
2017-11-29T09:21:56.167Z,4.80
2017-11-29T09:24:24.707Z,5.00
2017-11-29T09:26:52.419Z,5.00
2017-11-29T09:29:20.357Z,4.70
2017-11-29T09:31:48.023Z,4.70
2017-11-29T09:34:16.340Z,4.90
2017-11-29T09:36:44.184Z,4.70
2017-11-29T09:39:11.844Z,5.00
2017-11-29T09:41:39.861Z,4.70
2017-11-29T09:44:07.874Z,5.00
2017-11-29T09:46:36.536Z,5.20
2017-11-29T09:49:04.299Z,5.00
2017-11-29T09:51:31.960Z,5.00
2017-11-29T09:53:59.679Z,4.80
2017-11-29T09:56:27.343Z,5.00
2017-11-29T09:58:55.067Z,5.00
2017-11-29T10:01:23.724Z,4.60
2017-11-29T10:03:52.068Z,5.10
2017-11-29T10:06:20.434Z,4.60
2017-11-29T10:08:48.941Z,4.70
2017-11-29T10:11:17.367Z,5.20
2017-11-29T10:13:45.027Z,4.70
2017-11-29T10:16:13.499Z,4.70
2017-11-29T10:18:41.440Z,5.10
2017-11-29T10:21:09.133Z,4.90
2017-11-29T10:23:36.791Z,4.70
2017-11-29T10:26:04.490Z,5.30
2017-11-29T10:28:32.186Z,5.00
2017-11-29T10:30:59.900Z,4.70
2017-11-29T10:33:27.568Z,4.70
2017-11-29T10:35:55.287Z,5.00
2017-11-29T10:38:22.962Z,4.80
2017-11-29T10:40:51.384Z,5.20
2017-11-29T10:43:19.116Z,4.90
2017-11-29T10:45:46.769Z,4.70
2017-11-29T10:48:14.483Z,5.30
2017-11-29T10:50:42.146Z,5.10
2017-11-29T10:53:10.118Z,5.20
2017-11-29T10:55:37.822Z,4.70
2017-11-29T10:58:05.533Z,5.20
2017-11-29T11:00:33.187Z,5.00
2017-11-29T11:03:00.866Z,5.00
2017-11-29T11:05:28.563Z,5.00
2017-11-29T11:07:56.218Z,5.00
2017-11-29T11:10:23.923Z,4.80
2017-11-29T11:12:51.696Z,4.70
2017-11-29T11:15:19.411Z,5.20
2017-11-29T11:17:47.891Z,5.00
2017-11-29T11:20:16.238Z,5.00
2017-11-29T11:22:43.973Z,5.00
2017-11-29T11:25:11.702Z,5.00
2017-11-29T11:27:39.387Z,5.00
2017-11-29T11:30:07.081Z,5.00
2017-11-29T11:32:34.939Z,5.00
2017-11-29T11:35:02.626Z,5.00
2017-11-29T11:37:30.344Z,5.00
2017-11-29T11:39:58.012Z,5.00
2017-11-29T11:42:25.708Z,5.00
2017-11-29T11:44:54.186Z,4.80
2017-11-29T11:47:21.914Z,5.00
2017-11-29T11:49:49.587Z,5.20
2017-11-29T11:52:17.561Z,4.90
2017-11-29T11:54:45.302Z,4.70
2017-11-29T11:57:12.979Z,5.20
2017-11-29T11:59:40.640Z,5.00
2017-11-29T12:02:08.448Z,5.00
2017-11-29T12:04:36.931Z,5.00
2017-11-29T12:07:04.629Z,5.10
2017-11-29T12:09:32.352Z,5.20
2017-11-29T12:12:00.257Z,5.00
2017-11-29T12:14:28.239Z,5.10
2017-11-29T12:16:55.894Z,5.20
2017-11-29T12:19:23.607Z,5.30
2017-11-29T12:21:51.268Z,5.10
2017-11-29T12:24:18.975Z,5.10
2017-11-29T12:26:46.640Z,5.30
2017-11-29T12:29:14.349Z,5.00
2017-11-29T12:31:42.728Z,5.00
2017-11-29T12:34:10.398Z,5.00
2017-11-29T12:36:38.501Z,5.10
2017-11-29T12:39:06.159Z,5.20
2017-11-29T12:41:33.867Z,5.40
2017-11-29T12:44:01.523Z,5.10
2017-11-29T12:46:29.229Z,5.50
2017-11-29T12:49:08.839Z,5.00
2017-11-29T12:51:37.283Z,5.10
2017-11-29T12:54:05.039Z,5.30
2017-11-29T12:56:32.787Z,5.10
2017-11-29T12:59:00.455Z,5.10
2017-11-29T13:01:28.215Z,5.20
2017-11-29T13:03:55.891Z,5.00
2017-11-29T13:06:23.539Z,5.00
2017-11-29T13:08:51.271Z,5.00
2017-11-29T13:11:18.923Z,5.10
2017-11-29T13:13:46.658Z,5.30
2017-11-29T13:16:14.342Z,5.00
2017-11-29T13:18:42.074Z,5.00
2017-11-29T13:21:09.768Z,5.30
2017-11-29T13:23:37.475Z,5.30
2017-11-29T13:26:06.697Z,5.40
2017-11-29T13:28:34.419Z,5.20
2017-11-29T13:31:02.471Z,5.60
2017-11-29T13:33:30.145Z,5.10
2017-11-29T13:35:57.926Z,5.20
2017-11-29T13:38:25.636Z,5.60
2017-11-29T13:40:53.542Z,5.10
2017-11-29T13:43:21.304Z,5.20
2017-11-29T13:45:49.038Z,5.00
2017-11-29T13:48:17.034Z,5.10
2017-11-29T13:50:44.726Z,5.20
2017-11-29T13:53:12.436Z,5.60
2017-11-29T13:55:40.111Z,5.10
2017-11-29T13:58:07.796Z,5.20
2017-11-29T14:00:35.555Z,5.60
2017-11-29T14:03:03.202Z,5.40
2017-11-29T14:05:31.170Z,5.40
2017-11-29T14:07:59.678Z,5.10
2017-11-29T14:10:27.368Z,5.50
2017-11-29T14:12:55.035Z,5.60
2017-11-29T14:15:22.693Z,5.10
2017-11-29T14:17:50.986Z,5.40
2017-11-29T14:20:18.643Z,5.10
2017-11-29T14:22:46.259Z,5.10
2017-11-29T14:25:13.914Z,5.20
2017-11-29T14:27:41.653Z,5.00
2017-11-29T14:30:09.314Z,5.10
2017-11-29T14:32:36.970Z,5.20
2017-11-29T14:35:04.612Z,5.40
2017-11-29T14:37:32.283Z,5.00
2017-11-29T14:39:59.909Z,5.00
2017-11-29T14:42:27.627Z,5.00
2017-11-29T14:44:55.687Z,5.00
2017-11-29T14:47:23.448Z,5.10
2017-11-29T14:49:51.073Z,5.10
2017-11-29T14:52:19.335Z,5.20
2017-11-29T14:54:46.951Z,5.40
2017-11-29T14:57:14.566Z,5.10
2017-11-29T14:59:42.225Z,5.30
2017-11-29T15:02:09.895Z,5.00
2017-11-29T15:04:37.515Z,5.00
2017-11-29T15:07:05.924Z,5.40
2017-11-29T15:09:33.834Z,5.30
2017-11-29T15:12:01.499Z,5.10
2017-11-29T15:14:29.123Z,5.10
2017-11-29T15:16:56.907Z,5.10
2017-11-29T15:19:24.567Z,5.10
2017-11-29T15:21:52.187Z,5.10
2017-11-29T15:24:20.588Z,5.20
2017-11-29T15:26:48.209Z,5.40
2017-11-29T15:29:16.858Z,5.10
2017-11-29T15:31:44.674Z,5.20
2017-11-29T15:34:12.370Z,5.00
2017-11-29T15:36:40.075Z,5.10
2017-11-29T15:39:07.733Z,5.10
2017-11-29T15:41:35.371Z,5.20
2017-11-29T15:44:03.051Z,5.30
2017-11-29T15:46:30.752Z,5.10
2017-11-29T15:48:58.441Z,5.00
2017-11-29T15:51:26.087Z,4.80
2017-11-29T15:53:53.971Z,5.00
2017-11-29T15:56:21.638Z,4.80
2017-11-29T15:58:49.273Z,4.80
2017-11-29T16:01:16.964Z,4.80
2017-11-29T16:03:44.665Z,4.80
2017-11-29T16:06:12.353Z,4.80
2017-11-29T16:08:40.034Z,4.80
2017-11-29T16:11:07.683Z,4.80
2017-11-29T16:13:35.343Z,4.80
2017-11-29T16:16:03.060Z,4.80
2017-11-29T16:18:30.735Z,4.80
2017-11-29T16:20:58.439Z,4.80
2017-11-29T16:23:26.121Z,4.80
2017-11-29T16:25:54.539Z,4.80
2017-11-29T16:28:22.239Z,4.80
2017-11-29T16:30:49.913Z,4.80
2017-11-29T16:33:17.549Z,4.80
2017-11-29T16:35:45.222Z,4.90
2017-11-29T16:38:12.939Z,4.70
2017-11-29T16:40:40.707Z,5.00
2017-11-29T16:43:08.356Z,4.70
2017-11-29T16:45:36.031Z,5.00
2017-11-29T16:48:03.652Z,4.80
2017-11-29T16:50:31.298Z,4.80
2017-11-29T16:52:59.598Z,4.80
2017-11-29T16:55:28.058Z,4.70
2017-11-29T16:57:55.783Z,4.60
2017-11-29T17:00:23.475Z,4.70
2017-11-29T17:02:51.227Z,5.00
2017-11-29T17:05:18.865Z,4.70
2017-11-29T17:07:46.518Z,4.60
2017-11-29T17:10:14.182Z,4.70
2017-11-29T17:12:41.866Z,5.00
2017-11-29T17:15:09.539Z,4.70
2017-11-29T17:17:37.478Z,5.00
2017-11-29T17:22:55.697Z,4.80
2017-11-29T17:25:23.614Z,4.70
2017-11-29T17:27:51.371Z,4.60
2017-11-29T17:30:19.434Z,4.50
2017-11-29T17:32:47.127Z,4.90
2017-11-29T17:35:14.828Z,4.40
2017-11-29T17:37:42.647Z,4.50
2017-11-29T17:40:10.430Z,4.40
2017-11-29T17:42:38.807Z,4.50
2017-11-29T17:45:06.462Z,4.40
2017-11-29T17:47:34.095Z,4.70
2017-11-29T17:50:02.458Z,4.40
2017-11-29T17:52:30.856Z,4.70
2017-11-29T17:54:58.715Z,4.90
2017-11-29T17:57:26.402Z,4.40
2017-11-29T17:59:54.238Z,4.50
2017-11-29T18:02:22.244Z,4.50
2017-11-29T18:04:54.000Z,4.60
2017-11-29T18:07:24.908Z,4.80
2017-11-29T18:09:52.889Z,4.50
2017-11-29T18:12:23.690Z,4.30
2017-11-29T18:14:51.788Z,4.30
2017-11-29T18:17:19.534Z,4.40
2017-11-29T18:19:47.316Z,4.50
2017-11-29T18:22:16.162Z,4.40
2017-11-29T18:24:44.070Z,4.50
2017-11-29T18:27:11.736Z,4.40
2017-11-29T18:29:39.682Z,4.50
2017-11-29T18:32:07.391Z,4.30
2017-11-29T18:34:35.828Z,4.40
2017-11-29T18:37:03.582Z,4.30
2017-11-29T18:39:31.377Z,4.40
2017-11-29T18:41:59.360Z,4.50
2017-11-29T18:44:28.991Z,4.40
2017-11-29T18:46:56.796Z,4.20
2017-11-29T18:49:24.451Z,4.40
2017-11-29T18:51:52.227Z,4.50
2017-11-29T18:54:20.073Z,4.30
2017-11-29T18:56:47.838Z,4.40
2017-11-29T18:59:15.498Z,4.50
2017-11-29T19:01:43.362Z,4.30
2017-11-29T19:04:11.137Z,4.40
2017-11-29T19:06:38.821Z,4.20
2017-11-29T19:09:06.563Z,4.40
2017-11-29T19:11:34.240Z,4.10
2017-11-29T19:14:01.984Z,4.40
2017-11-29T19:16:31.178Z,4.20
2017-11-29T19:18:59.546Z,4.20
2017-11-29T19:21:27.251Z,4.20
2017-11-29T19:23:55.383Z,4.40
2017-11-29T19:26:23.103Z,4.50
2017-11-29T19:28:50.837Z,4.00
2017-11-29T19:31:18.571Z,4.50
2017-11-29T19:33:46.224Z,4.30
2017-11-29T19:36:13.882Z,4.40
2017-11-29T19:38:42.446Z,4.40
2017-11-29T19:41:10.150Z,4.40
2017-11-29T19:43:38.013Z,4.40
2017-11-29T19:46:05.857Z,4.50
2017-11-29T19:48:39.356Z,4.30
2017-11-29T19:51:07.352Z,4.40
2017-11-29T19:53:38.217Z,4.50
2017-11-29T19:56:06.124Z,4.30
2017-11-29T19:58:34.139Z,4.40
2017-11-29T20:01:02.579Z,4.60
2017-11-29T20:03:30.647Z,4.20
2017-11-29T20:05:58.471Z,4.50
2017-11-29T20:08:26.215Z,4.10
2017-11-29T20:10:53.877Z,4.20
2017-11-29T20:13:22.390Z,4.10
2017-11-29T20:15:50.304Z,4.20
2017-11-29T20:18:18.143Z,4.20
2017-11-29T20:20:45.902Z,4.20
2017-11-29T20:23:14.543Z,4.20
2017-11-29T20:25:42.656Z,4.30
2017-11-29T20:28:10.285Z,4.20
2017-11-29T20:30:38.618Z,4.20
2017-11-29T20:33:06.255Z,4.20
2017-11-29T20:35:34.235Z,4.20
2017-11-29T20:38:01.934Z,3.70
2017-11-29T20:40:30.425Z,4.20
2017-11-29T20:42:58.107Z,4.20
2017-11-29T20:45:25.987Z,4.20
2017-11-29T20:47:53.980Z,4.10
2017-11-29T20:50:22.139Z,4.20
2017-11-29T20:52:55.688Z,4.20
2017-11-29T20:55:23.421Z,4.20
2017-11-29T20:57:51.863Z,4.00
2017-11-29T21:00:19.646Z,4.10
2017-11-29T21:02:47.323Z,4.20
2017-11-29T21:05:15.771Z,4.20
2017-11-29T21:07:43.471Z,4.00
2017-11-29T21:10:12.136Z,4.00
2017-11-29T21:12:39.830Z,4.00
2017-11-29T21:15:07.502Z,4.20
2017-11-29T21:17:35.419Z,4.10
2017-11-29T21:20:03.270Z,4.10
2017-11-29T21:22:31.255Z,4.20
2017-11-29T21:24:59.105Z,4.20
2017-11-29T21:27:26.803Z,4.10
2017-11-29T21:29:55.199Z,3.80
2017-11-29T21:32:22.924Z,3.90
2017-11-29T21:34:50.596Z,3.80
2017-11-29T21:37:18.223Z,4.30
2017-11-29T21:39:45.910Z,3.90
2017-11-29T21:42:14.671Z,3.90
2017-11-29T21:44:42.373Z,3.90
2017-11-29T21:47:11.375Z,4.00
2017-11-29T21:49:39.759Z,4.10
2017-11-29T21:52:07.478Z,3.90
2017-11-29T21:54:35.175Z,4.10
2017-11-29T21:57:03.010Z,4.10
2017-11-29T21:59:30.855Z,4.10
2017-11-29T22:01:58.625Z,4.10
2017-11-29T22:04:28.043Z,4.20
2017-11-29T22:06:55.715Z,4.00
2017-11-29T22:09:24.736Z,4.20
2017-11-29T22:11:52.690Z,4.00
2017-11-29T22:14:21.120Z,4.10
2017-11-29T22:16:48.797Z,3.90
2017-11-29T22:19:16.643Z,4.20
2017-11-29T22:21:44.297Z,4.20
2017-11-29T22:24:12.169Z,4.10
2017-11-29T22:26:39.931Z,4.10
2017-11-29T22:29:07.697Z,4.20
2017-11-29T22:31:35.548Z,4.20
2017-11-29T22:34:03.184Z,4.10
2017-11-29T22:36:31.084Z,4.10
2017-11-29T22:38:59.075Z,4.10
2017-11-29T22:41:26.750Z,4.10
2017-11-29T22:43:54.606Z,4.30
2017-11-29T22:46:22.444Z,4.10
2017-11-29T22:48:50.205Z,4.20
2017-11-29T22:51:17.876Z,4.20
2017-11-29T22:53:45.717Z,4.10
2017-11-29T22:56:13.364Z,4.10
2017-11-29T22:58:41.003Z,4.20
2017-11-29T23:01:08.783Z,4.20
2017-11-29T23:03:36.419Z,4.20
2017-11-29T23:06:05.170Z,4.10
2017-11-29T23:08:33.148Z,3.90
2017-11-29T23:11:00.988Z,4.20
2017-11-29T23:13:28.699Z,4.20
2017-11-29T23:15:57.261Z,4.10
2017-11-29T23:18:26.391Z,4.00
2017-11-29T23:20:54.099Z,4.30
2017-11-29T23:23:22.068Z,4.10
2017-11-29T23:25:50.059Z,4.10
2017-11-29T23:28:17.712Z,4.20
2017-11-29T23:30:45.553Z,4.10
2017-11-29T23:33:13.202Z,4.10
2017-11-29T23:35:41.079Z,4.10
2017-11-29T23:38:08.843Z,4.20
2017-11-29T23:40:36.505Z,4.10
2017-11-29T23:43:04.367Z,4.20
2017-11-29T23:45:32.095Z,4.20
2017-11-29T23:48:00.776Z,4.20
2017-11-29T23:50:28.405Z,4.20
2017-11-29T23:52:56.091Z,4.10
2017-11-29T23:55:23.732Z,4.10
2017-11-29T23:57:52.201Z,4.20
